Terminal Aerodrome Forecast
Issued by NWS Sioux Falls, SD

Home | Current Version | Previous Version | Text Only | Print | Product List | Glossary Off
Versions: 1 2 3 4 5 6 7 8 9 10 11 12

116
FTUS43 KFSD 220539
TAFHON
TAF
KHON 220539Z 2206/2306 20004KT P6SM VCTS BKN040CB
     FM220700 VRB04KT P6SM SCT060
     FM221500 32008KT P6SM SKC
     FM222000 31012KT P6SM SKC
     FM230000 33007KT P6SM SKC=

USA.gov is the U.S. government's official web portal to all federal, state and local government web resources and services.